TAF KALW
KALW 270520Z 2706/2806 17008KT P6SM SCT050 SCT150 FM271900 22005KT P6SM OVC070 FM280100 18005KT P6SM OVC050=
METAR KALW
WC KALW
WS KALW
WV KALW